Terminal Aerodrome Forecast
Issued by NWS

Home | Current Version | Previous Version | Text Only | Print | Product List | Glossary On
Versions: 1 2 3 4 5 6 7 8 9 10 11 12 13
868
FTUS42 KMLB 131509 AAA
TAFISM
TAF AMD
KISM 131509Z 1315/1412 36010KT P6SM SKC
     FM131600 35012G18KT P6SM SKC
     FM140000 36009KT P6SM SKC=

USA.gov is the U.S. government's official web portal to all federal, state and local government web resources and services.